createdAt,value
2023-06-29T00:01:05.611Z,35.35
2023-06-29T00:03:35.700Z,34.60
2023-06-29T00:06:02.783Z,33.70
2023-06-29T00:08:30.768Z,34.20
2023-06-29T00:10:57.478Z,41.63
2023-06-29T00:13:24.621Z,37.50
2023-06-29T00:15:51.315Z,32.63
2023-06-29T00:18:20.074Z,32.85
2023-06-29T00:20:47.268Z,36.15
2023-06-29T00:23:13.921Z,32.00
2023-06-29T00:25:43.299Z,32.70
2023-06-29T00:28:10.287Z,31.73
2023-06-29T00:30:36.974Z,35.28
2023-06-29T00:33:03.795Z,33.92
2023-06-29T00:35:30.497Z,33.80
2023-06-29T00:37:57.807Z,35.42
2023-06-29T00:40:24.475Z,43.30
2023-06-29T00:42:51.314Z,31.23
2023-06-29T00:45:17.937Z,34.05
2023-06-29T00:47:44.811Z,33.25
2023-06-29T00:50:11.625Z,31.33
2023-06-29T00:52:38.351Z,32.95
2023-06-29T00:55:05.429Z,35.85
2023-06-29T00:57:32.144Z,32.80
2023-06-29T01:00:01.881Z,33.03
2023-06-29T01:02:32.768Z,40.05
2023-06-29T01:04:59.684Z,32.08
2023-06-29T01:07:47.113Z,36.45
2023-06-29T01:10:14.963Z,34.88
2023-06-29T01:12:41.946Z,29.65
2023-06-29T01:15:09.367Z,36.03
2023-06-29T01:17:38.115Z,38.10
2023-06-29T01:20:05.887Z,35.55
2023-06-29T01:22:37.998Z,37.67
2023-06-29T01:25:05.155Z,38.25
2023-06-29T01:27:34.911Z,34.88
2023-06-29T01:30:02.534Z,36.58
2023-06-29T01:32:36.202Z,36.45
2023-06-29T01:35:03.833Z,37.88
2023-06-29T01:37:37.685Z,35.83
2023-06-29T01:40:09.779Z,40.15
2023-06-29T01:42:37.041Z,34.80
2023-06-29T01:45:08.982Z,38.72
2023-06-29T01:47:35.985Z,35.55
2023-06-29T01:50:03.719Z,34.20
2023-06-29T01:52:30.746Z,36.50
2023-06-29T01:54:57.438Z,36.90
2023-06-29T01:57:24.135Z,39.75
2023-06-29T01:59:52.832Z,36.05
2023-06-29T02:02:19.553Z,35.20
2023-06-29T02:04:46.425Z,37.45
2023-06-29T02:07:13.169Z,37.97
2023-06-29T02:09:40.374Z,38.47
2023-06-29T02:12:07.534Z,36.45
2023-06-29T02:14:34.197Z,37.50
2023-06-29T02:17:00.828Z,39.25
2023-06-29T02:19:27.458Z,35.42
2023-06-29T02:21:54.119Z,36.30
2023-06-29T02:24:20.775Z,38.65
2023-06-29T02:26:47.416Z,33.13
2023-06-29T02:29:14.060Z,35.42
2023-06-29T02:31:40.839Z,35.97
2023-06-29T02:34:07.514Z,36.83
2023-06-29T02:36:34.163Z,34.72
2023-06-29T02:39:00.795Z,33.80
2023-06-29T02:41:27.724Z,38.92
2023-06-29T02:43:54.508Z,40.38
2023-06-29T02:46:21.290Z,36.40
2023-06-29T02:48:48.488Z,34.70
2023-06-29T02:51:15.823Z,35.08
2023-06-29T02:53:42.723Z,33.70
2023-06-29T02:56:09.353Z,37.13
2023-06-29T02:58:35.999Z,31.95
2023-06-29T03:01:08.165Z,35.10
2023-06-29T03:03:35.041Z,38.55
2023-06-29T03:06:01.804Z,30.67
2023-06-29T03:08:29.742Z,36.17
2023-06-29T03:10:58.369Z,37.05
2023-06-29T03:13:25.094Z,27.85
2023-06-29T03:15:51.988Z,33.97
2023-06-29T03:18:18.670Z,32.65
2023-06-29T03:20:45.334Z,32.50
2023-06-29T03:23:12.001Z,37.15
2023-06-29T03:25:38.655Z,36.83
2023-06-29T03:28:05.361Z,35.28
2023-06-29T03:30:31.970Z,31.27
2023-06-29T03:33:00.932Z,40.10
2023-06-29T03:35:27.937Z,38.17
2023-06-29T03:37:54.574Z,34.63
2023-06-29T03:40:21.178Z,41.22
2023-06-29T03:42:47.825Z,34.90
2023-06-29T03:45:14.561Z,34.67
2023-06-29T03:47:41.351Z,41.10
2023-06-29T03:50:08.292Z,40.80
2023-06-29T03:52:35.075Z,38.28
2023-06-29T03:55:01.711Z,36.30
2023-06-29T03:57:28.393Z,34.42
2023-06-29T03:59:55.041Z,35.03
2023-06-29T04:02:21.743Z,29.55
2023-06-29T04:04:48.559Z,37.17
2023-06-29T04:07:15.178Z,40.17
2023-06-29T04:09:41.871Z,38.15
2023-06-29T04:12:08.909Z,39.50
2023-06-29T04:14:35.539Z,38.35
2023-06-29T04:17:02.195Z,37.53
2023-06-29T04:19:28.865Z,35.83
2023-06-29T04:21:55.542Z,40.00
2023-06-29T04:24:22.178Z,37.65
2023-06-29T04:26:48.856Z,39.22
2023-06-29T04:29:15.574Z,38.65
2023-06-29T04:31:42.155Z,35.85
2023-06-29T04:34:08.797Z,43.83
2023-06-29T04:36:35.469Z,39.00
2023-06-29T04:39:02.243Z,37.95
2023-06-29T04:41:34.888Z,33.13
2023-06-29T04:44:01.718Z,40.57
2023-06-29T04:46:32.140Z,37.08
2023-06-29T04:49:06.111Z,37.13
2023-06-29T04:51:36.705Z,39.08
2023-06-29T04:54:06.497Z,42.22
2023-06-29T04:56:33.275Z,37.90
2023-06-29T04:59:00.080Z,39.63
2023-06-29T05:01:26.945Z,41.85
2023-06-29T05:03:53.773Z,37.92
2023-06-29T05:06:21.203Z,42.60
2023-06-29T05:08:47.896Z,39.55
2023-06-29T05:11:14.531Z,39.70
2023-06-29T05:13:41.210Z,38.38
2023-06-29T05:16:07.895Z,35.67
2023-06-29T05:18:37.167Z,42.25
2023-06-29T05:21:04.872Z,39.72
2023-06-29T05:23:31.559Z,41.28
2023-06-29T05:25:58.200Z,40.42
2023-06-29T05:28:24.844Z,35.50
2023-06-29T05:30:51.534Z,39.03
2023-06-29T05:33:18.190Z,32.58
2023-06-29T05:35:45.710Z,33.15
2023-06-29T05:38:12.666Z,39.28
2023-06-29T05:40:39.632Z,35.92
2023-06-29T05:43:06.298Z,35.90
2023-06-29T05:45:32.932Z,38.55
2023-06-29T05:47:59.654Z,31.85
2023-06-29T05:50:26.320Z,35.10
2023-06-29T05:52:52.996Z,44.55
2023-06-29T05:55:20.741Z,38.30
2023-06-29T05:57:48.498Z,39.45
2023-06-29T06:00:15.639Z,38.15
2023-06-29T06:02:44.785Z,33.85
2023-06-29T06:05:11.462Z,33.60
2023-06-29T06:07:38.805Z,35.67
2023-06-29T06:10:06.122Z,32.38
2023-06-29T06:12:32.884Z,29.05
2023-06-29T06:14:59.482Z,35.45
2023-06-29T06:17:26.316Z,40.35
2023-06-29T06:19:54.890Z,31.95
2023-06-29T06:22:21.579Z,36.28
2023-06-29T06:24:48.240Z,32.47
2023-06-29T06:27:14.872Z,32.05
2023-06-29T06:29:41.576Z,30.60
2023-06-29T06:32:08.380Z,31.55
2023-06-29T06:34:35.167Z,31.52
2023-06-29T06:37:01.856Z,31.75
2023-06-29T06:39:28.724Z,31.73
2023-06-29T06:41:55.498Z,32.47
2023-06-29T06:44:22.333Z,39.28
2023-06-29T06:46:49.241Z,39.88
2023-06-29T06:49:16.083Z,35.65
2023-06-29T06:51:43.029Z,39.28
2023-06-29T06:54:09.709Z,39.42
2023-06-29T06:56:38.503Z,42.35
2023-06-29T06:59:05.837Z,45.25
2023-06-29T07:01:32.704Z,42.25
2023-06-29T07:03:59.615Z,42.75
2023-06-29T07:06:26.416Z,38.63
2023-06-29T07:08:53.054Z,41.28
2023-06-29T07:11:19.724Z,40.25
2023-06-29T07:13:46.529Z,41.53
2023-06-29T07:16:14.280Z,41.35
2023-06-29T07:18:52.157Z,42.05
2023-06-29T07:21:21.715Z,42.95
2023-06-29T07:26:19.163Z,41.30
2023-06-29T07:28:45.789Z,45.03
2023-06-29T07:31:12.585Z,46.88
2023-06-29T07:33:39.428Z,47.28
2023-06-29T07:36:06.368Z,43.92
2023-06-29T07:38:32.976Z,44.30
2023-06-29T07:40:59.751Z,45.80
2023-06-29T07:43:26.606Z,44.88
2023-06-29T07:45:53.212Z,45.70
2023-06-29T07:48:20.011Z,42.65
2023-06-29T07:50:46.761Z,43.63
2023-06-29T07:53:13.509Z,36.80
2023-06-29T07:55:40.234Z,40.85
2023-06-29T08:00:36.446Z,39.42
2023-06-29T08:03:03.411Z,38.67
2023-06-29T08:07:59.862Z,47.90
2023-06-29T08:10:26.640Z,36.00
2023-06-29T08:12:53.362Z,38.15
2023-06-29T08:15:19.979Z,36.35
2023-06-29T08:17:46.872Z,44.67
2023-06-29T08:20:14.008Z,36.55
2023-06-29T08:22:41.746Z,39.53
2023-06-29T08:25:08.785Z,40.00
2023-06-29T08:27:36.704Z,37.08
2023-06-29T08:30:03.798Z,41.05
2023-06-29T08:32:30.520Z,35.97
2023-06-29T08:34:57.292Z,36.38
2023-06-29T08:37:23.913Z,43.13
2023-06-29T08:39:50.567Z,42.35
2023-06-29T08:42:17.236Z,40.28
2023-06-29T08:44:43.886Z,42.63
2023-06-29T08:47:12.288Z,36.38
2023-06-29T08:49:40.713Z,38.17
2023-06-29T08:52:07.544Z,35.95
2023-06-29T08:54:36.226Z,38.30
2023-06-29T08:57:04.921Z,36.85
2023-06-29T08:59:32.080Z,33.28
2023-06-29T09:01:59.474Z,38.58
2023-06-29T09:04:26.375Z,33.90
2023-06-29T09:06:57.433Z,34.22
2023-06-29T09:09:24.410Z,33.15
2023-06-29T09:11:51.466Z,35.80
2023-06-29T09:14:18.148Z,35.80
2023-06-29T09:16:57.680Z,36.50
2023-06-29T09:19:25.405Z,34.22
2023-06-29T09:21:52.987Z,39.95
2023-06-29T09:24:20.200Z,35.92
2023-06-29T09:26:50.948Z,33.80
2023-06-29T09:29:20.425Z,36.05
2023-06-29T09:31:57.649Z,33.35
2023-06-29T09:34:26.789Z,34.38
2023-06-29T09:36:54.014Z,35.15
2023-06-29T09:39:21.313Z,35.20
2023-06-29T09:41:57.880Z,38.33
2023-06-29T09:44:25.973Z,32.35
2023-06-29T09:49:24.804Z,29.50
2023-06-29T09:52:02.777Z,28.45
2023-06-29T09:54:29.455Z,27.63
2023-06-29T09:56:56.188Z,27.60
2023-06-29T09:59:22.938Z,30.45
2023-06-29T10:01:49.645Z,25.80
2023-06-29T10:04:16.357Z,37.47
2023-06-29T10:06:49.798Z,33.92
2023-06-29T10:11:51.615Z,33.42
2023-06-29T10:14:20.227Z,33.95
2023-06-29T10:16:47.360Z,33.83
2023-06-29T10:19:17.045Z,35.00
2023-06-29T10:21:44.284Z,34.47
2023-06-29T10:24:14.948Z,31.05
2023-06-29T10:26:42.392Z,38.50
2023-06-29T10:29:10.232Z,33.67
2023-06-29T10:31:37.135Z,39.42
2023-06-29T10:34:08.178Z,34.47
2023-06-29T10:36:59.405Z,35.75
2023-06-29T10:39:45.198Z,37.65
2023-06-29T10:42:12.908Z,35.88
2023-06-29T10:44:39.762Z,35.38
2023-06-29T10:47:06.725Z,37.35
2023-06-29T10:49:33.390Z,34.70
2023-06-29T10:52:05.547Z,36.45
2023-06-29T10:54:32.435Z,41.20
2023-06-29T10:57:08.958Z,36.55
2023-06-29T10:59:38.055Z,37.67
2023-06-29T11:02:05.296Z,37.00
2023-06-29T11:04:32.226Z,41.28
2023-06-29T11:07:05.528Z,34.22
2023-06-29T11:09:32.173Z,35.17
2023-06-29T11:12:00.104Z,39.70
2023-06-29T11:14:26.807Z,44.03
2023-06-29T11:16:54.808Z,33.58
2023-06-29T11:19:27.024Z,35.97
2023-06-29T11:21:55.412Z,32.45
2023-06-29T11:24:23.192Z,39.20
2023-06-29T11:26:50.068Z,36.38
2023-06-29T11:29:16.648Z,37.97
2023-06-29T11:31:43.329Z,35.22
2023-06-29T11:34:13.760Z,35.15
2023-06-29T11:36:40.467Z,36.40
2023-06-29T11:39:09.045Z,34.03
2023-06-29T11:41:37.379Z,37.13
2023-06-29T11:44:04.414Z,33.17
2023-06-29T11:46:37.216Z,31.75
2023-06-29T11:49:05.674Z,37.75
2023-06-29T11:51:39.859Z,33.05
2023-06-29T11:54:08.455Z,30.77
2023-06-29T11:56:37.469Z,32.78
2023-06-29T11:59:13.783Z,27.42
2023-06-29T12:01:40.773Z,30.75
2023-06-29T12:04:14.291Z,28.88
2023-06-29T12:06:55.034Z,32.42
2023-06-29T12:09:21.778Z,29.25
2023-06-29T12:11:59.398Z,29.90
2023-06-29T12:14:35.419Z,30.75
2023-06-29T12:19:42.496Z,31.48
2023-06-29T12:22:16.198Z,34.92
2023-06-29T12:24:49.478Z,33.70
2023-06-29T12:27:16.256Z,29.08
2023-06-29T12:29:42.861Z,35.05
2023-06-29T12:32:09.677Z,35.25
2023-06-29T12:34:36.295Z,27.50
2023-06-29T12:37:03.751Z,29.52
2023-06-29T12:39:30.549Z,28.80
2023-06-29T12:41:57.726Z,28.40
2023-06-29T12:44:24.351Z,28.00
2023-06-29T12:46:51.050Z,30.38
2023-06-29T12:49:17.772Z,28.52
2023-06-29T12:51:44.391Z,30.25
2023-06-29T12:54:11.014Z,30.98
2023-06-29T12:56:39.480Z,34.58
2023-06-29T12:59:06.098Z,32.88
2023-06-29T13:01:32.828Z,31.77
2023-06-29T13:03:59.589Z,33.75
2023-06-29T13:06:26.271Z,32.15
2023-06-29T13:08:54.282Z,35.25
2023-06-29T13:11:21.849Z,31.75
2023-06-29T13:13:48.606Z,29.85
2023-06-29T13:16:15.362Z,33.47
2023-06-29T13:18:41.993Z,33.97
2023-06-29T13:21:08.616Z,33.97
2023-06-29T13:23:35.392Z,30.60
2023-06-29T13:26:02.049Z,30.33
2023-06-29T13:28:28.697Z,31.23
2023-06-29T13:30:55.695Z,29.20
2023-06-29T13:33:22.371Z,32.45
2023-06-29T13:35:49.236Z,28.70
2023-06-29T13:38:16.255Z,33.22
2023-06-29T13:40:42.875Z,27.35
2023-06-29T13:43:09.547Z,29.70
2023-06-29T13:45:36.155Z,27.33
2023-06-29T13:48:04.106Z,28.27
2023-06-29T13:50:40.964Z,28.27
2023-06-29T13:53:09.100Z,27.70
2023-06-29T13:55:35.759Z,28.23
2023-06-29T13:58:02.429Z,33.00
2023-06-29T14:00:29.047Z,28.77
2023-06-29T14:02:57.991Z,29.42
2023-06-29T14:05:24.767Z,30.75
2023-06-29T14:07:51.391Z,29.80
2023-06-29T14:10:18.105Z,23.38
2023-06-29T14:12:45.621Z,21.40
2023-06-29T14:15:12.308Z,22.90
2023-06-29T14:17:39.158Z,21.77
2023-06-29T14:20:06.417Z,23.65
2023-06-29T14:22:33.979Z,21.30
2023-06-29T14:25:00.777Z,21.27
2023-06-29T14:27:27.689Z,23.23
2023-06-29T14:29:54.361Z,23.83
2023-06-29T14:32:21.404Z,23.55
2023-06-29T14:34:49.535Z,25.05
2023-06-29T14:37:16.567Z,18.73
2023-06-29T14:39:43.198Z,18.35
2023-06-29T14:42:10.189Z,17.70
2023-06-29T14:44:36.916Z,16.00
2023-06-29T14:47:03.902Z,18.05
2023-06-29T14:49:30.592Z,18.00
2023-06-29T14:51:57.255Z,16.67
2023-06-29T14:54:23.962Z,19.75
2023-06-29T14:56:50.647Z,20.88
2023-06-29T14:59:17.460Z,18.90
2023-06-29T15:01:44.275Z,20.63
2023-06-29T15:04:10.995Z,21.20
2023-06-29T15:06:37.931Z,21.17
2023-06-29T15:09:05.766Z,19.70
2023-06-29T15:11:33.142Z,20.55
2023-06-29T15:13:59.781Z,19.70
2023-06-29T15:16:28.821Z,22.90
2023-06-29T15:19:00.337Z,21.58
2023-06-29T15:21:27.517Z,21.75
2023-06-29T15:23:54.577Z,21.42
2023-06-29T15:26:23.855Z,20.13
2023-06-29T15:28:50.524Z,22.58
2023-06-29T15:31:17.241Z,22.83
2023-06-29T15:33:43.929Z,26.13
2023-06-29T15:36:10.683Z,22.48
2023-06-29T15:38:37.327Z,26.88
2023-06-29T15:41:04.031Z,22.27
2023-06-29T15:43:31.726Z,24.10
2023-06-29T15:45:58.994Z,23.48
2023-06-29T15:48:25.791Z,21.83
2023-06-29T15:50:52.561Z,23.35
2023-06-29T15:53:19.226Z,24.65
2023-06-29T15:55:46.429Z,24.67
2023-06-29T15:58:13.239Z,21.75
2023-06-29T16:00:40.166Z,26.73
2023-06-29T16:03:06.853Z,26.98
2023-06-29T16:05:35.799Z,26.00
2023-06-29T16:08:02.538Z,26.98
2023-06-29T16:10:29.185Z,25.27
2023-06-29T16:12:56.096Z,23.00
2023-06-29T16:15:23.656Z,25.20
2023-06-29T16:17:50.421Z,23.60
2023-06-29T16:20:17.338Z,26.30
2023-06-29T16:22:44.140Z,23.00
2023-06-29T16:25:10.895Z,18.10
2023-06-29T16:27:37.543Z,21.85
2023-06-29T16:30:04.663Z,23.35
2023-06-29T16:32:31.649Z,21.63
2023-06-29T16:34:58.545Z,26.77
2023-06-29T16:37:25.340Z,23.30
2023-06-29T16:39:51.990Z,19.35
2023-06-29T16:42:18.664Z,18.77
2023-06-29T16:44:45.309Z,16.08
2023-06-29T16:47:11.999Z,18.33
2023-06-29T16:49:39.937Z,16.65
2023-06-29T16:52:07.971Z,17.15
2023-06-29T16:54:35.088Z,16.75
2023-06-29T16:57:01.801Z,18.75
2023-06-29T16:59:28.475Z,20.05
2023-06-29T17:01:56.433Z,20.10
2023-06-29T17:04:25.826Z,23.65
2023-06-29T17:06:52.653Z,20.20
2023-06-29T17:09:19.375Z,22.85
2023-06-29T17:11:46.031Z,22.50
2023-06-29T17:14:12.987Z,20.83
2023-06-29T17:16:40.008Z,23.35
2023-06-29T17:19:06.959Z,22.35
2023-06-29T17:21:33.652Z,27.40
2023-06-29T17:24:01.687Z,28.52
2023-06-29T17:26:28.335Z,18.50
2023-06-29T17:28:55.071Z,14.23
2023-06-29T17:31:21.845Z,11.88
2023-06-29T17:33:54.656Z,12.07
2023-06-29T17:36:22.826Z,9.88
2023-06-29T17:38:49.481Z,9.45
2023-06-29T17:41:16.163Z,9.05
2023-06-29T17:43:42.815Z,7.20
2023-06-29T17:46:09.560Z,5.60
2023-06-29T17:48:36.285Z,3.03
2023-06-29T17:51:17.073Z,3.78
2023-06-29T17:53:47.593Z,2.83
2023-06-29T17:56:15.756Z,3.90
2023-06-29T17:58:45.996Z,3.58
2023-06-29T18:01:13.128Z,3.92
2023-06-29T18:03:40.586Z,2.55
2023-06-29T18:06:07.607Z,3.65
2023-06-29T18:08:34.329Z,3.88
2023-06-29T18:11:01.018Z,4.90
2023-06-29T18:13:27.750Z,3.00
2023-06-29T18:15:54.438Z,1.95
2023-06-29T18:18:21.103Z,2.75
2023-06-29T18:20:47.865Z,6.07
2023-06-29T18:23:14.570Z,3.10
2023-06-29T18:25:41.258Z,1.77
2023-06-29T18:28:07.872Z,1.25
2023-06-29T18:30:34.638Z,4.70
2023-06-29T18:33:01.468Z,1.88
2023-06-29T18:35:28.413Z,2.65
2023-06-29T18:37:55.102Z,1.58
2023-06-29T18:40:26.746Z,5.93
2023-06-29T18:42:53.560Z,1.92
2023-06-29T18:45:20.245Z,2.00
2023-06-29T18:47:47.666Z,2.95
2023-06-29T18:50:14.297Z,1.48
2023-06-29T18:52:40.967Z,2.45
2023-06-29T18:55:07.941Z,1.25
2023-06-29T18:57:34.657Z,1.52
2023-06-29T19:00:02.063Z,1.02
2023-06-29T19:02:28.816Z,1.48
2023-06-29T19:04:55.565Z,3.47
2023-06-29T19:07:22.361Z,2.28
2023-06-29T19:09:50.334Z,2.20
2023-06-29T19:12:16.992Z,6.18
2023-06-29T19:14:43.625Z,1.67
2023-06-29T19:17:10.355Z,4.72
2023-06-29T19:19:37.433Z,1.92
2023-06-29T19:22:04.308Z,4.25
2023-06-29T19:24:30.908Z,5.20
2023-06-29T19:26:57.614Z,1.90
2023-06-29T19:29:25.410Z,2.40
2023-06-29T19:31:52.140Z,2.67
2023-06-29T19:34:18.795Z,1.98
2023-06-29T19:36:45.470Z,4.72
2023-06-29T19:39:12.101Z,2.03
2023-06-29T19:41:38.770Z,3.58
2023-06-29T19:44:05.437Z,4.10
2023-06-29T19:46:32.305Z,1.95
2023-06-29T19:48:59.043Z,3.65
2023-06-29T19:51:27.898Z,2.75
2023-06-29T19:53:54.609Z,3.47
2023-06-29T19:56:22.111Z,2.55
2023-06-29T19:58:49.117Z,3.50
2023-06-29T20:01:15.775Z,2.83
2023-06-29T20:03:42.496Z,4.40
2023-06-29T20:06:10.934Z,2.50
2023-06-29T20:08:37.605Z,5.90
2023-06-29T20:11:04.202Z,5.65
2023-06-29T20:13:30.958Z,2.75
2023-06-29T20:15:58.042Z,3.35
2023-06-29T20:18:24.769Z,4.55
2023-06-29T20:20:51.446Z,2.67
2023-06-29T20:23:20.053Z,3.85
2023-06-29T20:25:47.647Z,3.30
2023-06-29T20:28:14.581Z,2.78
2023-06-29T20:30:41.332Z,3.05
2023-06-29T20:33:08.066Z,2.28
2023-06-29T20:35:34.780Z,4.57
2023-06-29T20:38:01.432Z,3.13
2023-06-29T20:40:28.070Z,4.95
2023-06-29T20:42:54.693Z,5.20
2023-06-29T20:45:21.373Z,4.32
2023-06-29T20:47:48.034Z,9.02
2023-06-29T20:50:14.803Z,6.43
2023-06-29T20:52:41.518Z,3.78
2023-06-29T20:55:08.413Z,4.15
2023-06-29T20:57:38.703Z,5.93
2023-06-29T21:00:06.748Z,8.75
2023-06-29T21:02:34.011Z,5.38
2023-06-29T21:05:01.121Z,3.85
2023-06-29T21:07:28.114Z,9.02
2023-06-29T21:09:54.849Z,5.20
2023-06-29T21:12:21.739Z,4.38
2023-06-29T21:14:48.621Z,5.95
2023-06-29T21:17:15.578Z,2.88
2023-06-29T21:19:42.564Z,4.88
2023-06-29T21:22:11.990Z,5.60
2023-06-29T21:24:40.218Z,3.38
2023-06-29T21:27:08.362Z,3.72
2023-06-29T21:29:42.264Z,4.60
2023-06-29T21:32:10.810Z,5.00
2023-06-29T21:34:38.044Z,4.05
2023-06-29T21:37:05.281Z,5.63
2023-06-29T21:39:31.914Z,5.72
2023-06-29T21:41:58.572Z,5.13
2023-06-29T21:44:25.169Z,3.95
2023-06-29T21:46:52.154Z,7.47
2023-06-29T21:49:18.998Z,6.55
2023-06-29T21:51:45.855Z,3.70
2023-06-29T21:54:14.910Z,5.55
2023-06-29T21:56:41.837Z,5.18
2023-06-29T21:59:08.481Z,4.03
2023-06-29T22:01:35.237Z,5.63
2023-06-29T22:04:02.161Z,4.93
2023-06-29T22:06:32.617Z,8.23
2023-06-29T22:08:59.332Z,6.80
2023-06-29T22:11:29.052Z,8.35
2023-06-29T22:13:56.181Z,5.80
2023-06-29T22:16:23.890Z,6.20
2023-06-29T22:18:51.895Z,5.70
2023-06-29T22:21:22.951Z,9.48
2023-06-29T22:23:53.348Z,9.55
2023-06-29T22:26:20.735Z,10.40
2023-06-29T22:28:47.394Z,5.07
2023-06-29T22:31:17.938Z,5.53
2023-06-29T22:33:45.743Z,9.20
2023-06-29T22:36:12.771Z,7.40
2023-06-29T22:38:39.445Z,6.18
2023-06-29T22:41:06.728Z,9.68
2023-06-29T22:43:33.827Z,4.97
2023-06-29T22:46:00.604Z,7.05
2023-06-29T22:48:27.673Z,7.30
2023-06-29T22:50:56.635Z,8.65
2023-06-29T22:53:24.362Z,8.32
2023-06-29T22:55:51.053Z,7.28
2023-06-29T22:58:25.303Z,7.05
2023-06-29T23:00:53.061Z,10.40
2023-06-29T23:03:19.910Z,8.43
2023-06-29T23:05:46.923Z,7.05
2023-06-29T23:08:13.877Z,12.10
2023-06-29T23:10:41.302Z,11.00
2023-06-29T23:13:14.984Z,9.02
2023-06-29T23:18:11.639Z,6.70
2023-06-29T23:20:39.144Z,7.70
2023-06-29T23:23:06.097Z,9.70
2023-06-29T23:25:33.592Z,12.45
2023-06-29T23:28:02.029Z,10.27
2023-06-29T23:30:28.747Z,10.57
2023-06-29T23:32:55.413Z,8.45
2023-06-29T23:35:22.242Z,7.88
2023-06-29T23:37:49.180Z,8.25
2023-06-29T23:40:16.129Z,11.15
2023-06-29T23:42:44.457Z,7.47
2023-06-29T23:45:12.385Z,7.35
2023-06-29T23:47:39.811Z,7.47
2023-06-29T23:50:11.817Z,9.45
2023-06-29T23:52:39.546Z,11.30
2023-06-29T23:55:12.398Z,9.95
2023-06-29T23:57:40.022Z,8.80
